Keewatin, Minnesota
Current Conditions -  °F | °C
As of 2:53 AM on Thursday 23 Oct 2014 (Local Time) from KHIB Reporting Station
Light Rain Light Rain  
Wind Chill: 45°   Ceiling: 2200
Heat Index: 48°   Visibility: 10mi
Dew Point: 43°   Wind: 6mph
Humidity: 83%   Direction: 170°S
Pressure: 29.95"   Gusts: NA
Location:  47.4°N, 93.07°W
Report Text: KHIB 230753Z AUTO 17005KT 10SM -RA OVC022 09/06 A2995 RMK AO2 RAB25 SLP148 P0000 T00890061
Loading
Personal Weather Stations






























Interactive Weather Map
Tropical Storm Tracking
New forecast layout! Learn more

10-Day Weather Forecast

Advertisements
Track Severe Weather on mobile